createdAt,value
2022-08-25T00:01:34.175Z,2.20
2022-08-25T00:03:39.505Z,3.22
2022-08-25T00:05:41.666Z,2.40
2022-08-25T00:07:43.340Z,2.55
2022-08-25T00:09:45.713Z,2.17
2022-08-25T00:11:49.288Z,2.35
2022-08-25T00:13:57.629Z,7.55
2022-08-25T00:15:59.456Z,3.38
2022-08-25T00:18:01.316Z,2.95
2022-08-25T00:20:05.125Z,2.65
2022-08-25T00:22:08.095Z,2.17
2022-08-25T00:24:11.249Z,2.20
2022-08-25T00:26:13.328Z,5.70
2022-08-25T00:28:16.842Z,3.88
2022-08-25T00:30:19.099Z,2.30
2022-08-25T00:32:20.777Z,2.38
2022-08-25T00:34:26.236Z,2.13
2022-08-25T00:36:29.077Z,2.50
2022-08-25T00:38:31.902Z,2.13
2022-08-25T00:40:34.233Z,4.88
2022-08-25T00:42:37.212Z,7.00
2022-08-25T00:44:39.881Z,3.13
2022-08-25T00:46:45.254Z,2.53
2022-08-25T00:48:51.470Z,8.05
2022-08-25T00:50:53.117Z,2.35
2022-08-25T00:52:56.472Z,7.80
2022-08-25T00:55:10.114Z,2.30
2022-08-25T00:57:13.946Z,2.55
2022-08-25T00:59:16.568Z,2.58
2022-08-25T01:01:18.403Z,2.38
2022-08-25T01:03:20.512Z,2.45
2022-08-25T01:05:26.946Z,1.90
2022-08-25T01:07:28.668Z,2.63
2022-08-25T01:09:32.599Z,2.45
2022-08-25T01:11:35.143Z,2.50
2022-08-25T01:13:42.404Z,3.15
2022-08-25T01:15:46.059Z,2.30
2022-08-25T01:17:54.310Z,3.45
2022-08-25T01:19:55.984Z,2.22
2022-08-25T01:21:58.046Z,2.17
2022-08-25T01:24:00.585Z,2.22
2022-08-25T01:26:04.757Z,3.67
2022-08-25T01:28:06.649Z,4.47
2022-08-25T01:30:09.043Z,2.42
2022-08-25T01:32:13.255Z,2.80
2022-08-25T01:34:16.304Z,2.08
2022-08-25T01:36:20.081Z,2.72
2022-08-25T01:38:21.796Z,2.75
2022-08-25T01:40:24.912Z,2.42
2022-08-25T01:43:04.318Z,1.92
2022-08-25T01:45:06.608Z,2.97
2022-08-25T01:47:09.013Z,2.03
2022-08-25T01:49:10.828Z,3.35
2022-08-25T01:51:15.016Z,2.28
2022-08-25T01:53:23.938Z,3.30
2022-08-25T01:55:26.359Z,2.25
2022-08-25T01:57:30.285Z,3.15
2022-08-25T01:59:32.067Z,2.42
2022-08-25T02:01:34.358Z,3.17
2022-08-25T02:03:42.304Z,7.82
2022-08-25T02:05:44.727Z,2.42
2022-08-25T02:07:49.849Z,2.85
2022-08-25T02:09:51.563Z,4.97
2022-08-25T02:11:53.257Z,3.08
2022-08-25T02:13:54.927Z,2.00
2022-08-25T02:15:58.695Z,2.33
2022-08-25T02:18:00.616Z,2.25
2022-08-25T02:20:05.274Z,2.55
2022-08-25T02:22:07.106Z,2.67
2022-08-25T02:24:09.321Z,3.25
2022-08-25T02:26:11.220Z,2.20
2022-08-25T02:28:13.619Z,2.35
2022-08-25T02:30:16.166Z,2.55
2022-08-25T02:32:17.756Z,2.65
2022-08-25T02:34:19.463Z,2.97
2022-08-25T02:36:22.060Z,3.67
2022-08-25T02:38:23.753Z,5.97
2022-08-25T02:40:25.492Z,2.75
2022-08-25T02:42:27.664Z,2.20
2022-08-25T02:44:29.382Z,2.50
2022-08-25T02:46:31.202Z,3.60
2022-08-25T02:48:32.978Z,2.92
2022-08-25T02:50:34.637Z,3.20
2022-08-25T02:52:36.826Z,2.78
2022-08-25T02:54:38.724Z,4.95
2022-08-25T02:56:41.277Z,2.97
2022-08-25T02:58:43.414Z,2.00
2022-08-25T03:00:46.170Z,3.60
2022-08-25T03:02:48.007Z,2.90
2022-08-25T03:04:50.817Z,3.25
2022-08-25T03:06:52.497Z,2.78
2022-08-25T03:08:54.862Z,3.30
2022-08-25T03:10:56.517Z,5.35
2022-08-25T03:12:58.223Z,2.90
2022-08-25T03:14:59.915Z,3.50
2022-08-25T03:17:02.946Z,4.30
2022-08-25T03:19:11.321Z,3.58
2022-08-25T03:21:13.462Z,2.95
2022-08-25T03:23:17.834Z,2.35
2022-08-25T03:25:38.118Z,2.80
2022-08-25T03:27:39.862Z,3.10
2022-08-25T03:29:43.113Z,3.78
2022-08-25T03:31:45.373Z,2.97
2022-08-25T03:33:47.042Z,2.85
2022-08-25T03:35:48.709Z,2.55
2022-08-25T03:37:51.301Z,3.05
2022-08-25T03:39:53.098Z,2.38
2022-08-25T03:41:55.054Z,4.07
2022-08-25T03:43:57.377Z,2.63
2022-08-25T03:45:59.102Z,3.10
2022-08-25T03:48:00.956Z,3.45
2022-08-25T03:50:02.763Z,3.83
2022-08-25T03:52:04.493Z,5.40
2022-08-25T03:54:06.688Z,3.42
2022-08-25T03:56:08.325Z,2.70
2022-08-25T03:58:10.117Z,2.75
2022-08-25T04:00:12.529Z,3.88
2022-08-25T04:02:14.194Z,2.85
2022-08-25T04:04:16.603Z,2.40
2022-08-25T04:06:19.479Z,2.65
2022-08-25T04:08:22.580Z,2.08
2022-08-25T04:10:24.322Z,4.10
2022-08-25T04:12:25.974Z,2.67
2022-08-25T04:14:27.811Z,3.50
2022-08-25T04:16:31.791Z,2.53
2022-08-25T04:18:34.428Z,3.67
2022-08-25T04:20:36.097Z,2.80
2022-08-25T04:22:38.498Z,2.72
2022-08-25T04:24:40.617Z,6.13
2022-08-25T04:26:45.963Z,2.50
2022-08-25T04:28:48.448Z,2.83
2022-08-25T04:30:52.073Z,5.13
2022-08-25T04:32:53.935Z,2.60
2022-08-25T04:34:55.633Z,2.63
2022-08-25T04:36:57.972Z,2.58
2022-08-25T04:38:59.766Z,2.65
2022-08-25T04:41:03.801Z,2.70
2022-08-25T04:43:05.515Z,3.22
2022-08-25T04:45:07.740Z,5.05
2022-08-25T04:47:11.099Z,10.20
2022-08-25T04:49:12.897Z,10.35
2022-08-25T04:51:17.095Z,14.75
2022-08-25T04:53:18.912Z,16.95
2022-08-25T04:55:20.641Z,24.13
2022-08-25T04:57:22.319Z,18.50
2022-08-25T04:59:24.162Z,12.45
2022-08-25T05:01:47.055Z,21.30
2022-08-25T05:03:57.603Z,9.50
2022-08-25T05:06:01.233Z,13.77
2022-08-25T05:08:04.041Z,9.73
2022-08-25T05:10:06.283Z,5.47
2022-08-25T05:12:08.256Z,18.55
2022-08-25T05:14:15.153Z,9.93
2022-08-25T05:16:19.968Z,7.85
2022-08-25T05:18:23.330Z,6.55
2022-08-25T05:20:25.640Z,3.10
2022-08-25T05:22:27.276Z,3.20
2022-08-25T05:24:29.740Z,3.88
2022-08-25T05:26:32.759Z,3.20
2022-08-25T05:28:34.600Z,5.32
2022-08-25T05:30:41.202Z,5.63
2022-08-25T05:32:42.852Z,4.20
2022-08-25T05:34:44.561Z,5.30
2022-08-25T05:36:46.906Z,3.60
2022-08-25T05:38:48.994Z,5.30
2022-08-25T05:41:00.487Z,5.47
2022-08-25T05:43:02.161Z,13.02
2022-08-25T05:45:07.790Z,5.13
2022-08-25T05:47:09.438Z,3.38
2022-08-25T05:49:11.094Z,3.03
2022-08-25T05:51:14.046Z,5.93
2022-08-25T05:53:16.072Z,6.43
2022-08-25T05:55:17.759Z,3.42
2022-08-25T05:57:19.517Z,4.72
2022-08-25T05:59:21.213Z,6.10
2022-08-25T06:01:45.473Z,5.45
2022-08-25T06:03:47.858Z,2.50
2022-08-25T06:05:50.346Z,4.18
2022-08-25T06:07:52.783Z,3.00
2022-08-25T06:09:54.429Z,4.10
2022-08-25T06:11:56.099Z,5.18
2022-08-25T06:13:57.791Z,4.20
2022-08-25T06:16:00.608Z,2.70
2022-08-25T06:18:03.496Z,3.80
2022-08-25T06:20:06.595Z,3.15
2022-08-25T06:22:08.830Z,6.25
2022-08-25T06:24:15.228Z,2.22
2022-08-25T06:26:21.119Z,2.60
2022-08-25T06:28:23.132Z,2.63
2022-08-25T06:30:28.794Z,3.70
2022-08-25T06:32:32.419Z,2.45
2022-08-25T06:34:34.173Z,2.25
2022-08-25T06:36:35.922Z,3.83
2022-08-25T06:38:37.722Z,2.17
2022-08-25T06:40:39.471Z,4.85
2022-08-25T06:42:41.193Z,3.50
2022-08-25T06:44:43.148Z,5.88
2022-08-25T06:46:44.798Z,3.83
2022-08-25T06:48:46.558Z,3.47
2022-08-25T06:50:48.585Z,8.65
2022-08-25T06:52:51.768Z,2.67
2022-08-25T06:54:54.776Z,3.53
2022-08-25T06:56:57.025Z,8.40
2022-08-25T06:59:01.838Z,4.45
2022-08-25T07:01:25.788Z,2.40
2022-08-25T07:03:27.750Z,2.58
2022-08-25T07:05:40.864Z,4.30
2022-08-25T07:07:46.481Z,3.78
2022-08-25T07:09:48.208Z,9.43
2022-08-25T07:11:49.919Z,4.32
2022-08-25T07:13:51.614Z,2.80
2022-08-25T07:15:55.183Z,4.55
2022-08-25T07:17:57.866Z,3.70
2022-08-25T07:19:59.687Z,6.05
2022-08-25T07:22:01.524Z,3.90
2022-08-25T07:24:09.280Z,4.70
2022-08-25T07:28:47.222Z,2.85
2022-08-25T07:30:51.959Z,3.22
2022-08-25T07:32:55.317Z,3.13
2022-08-25T07:35:15.321Z,3.55
2022-08-25T07:37:27.570Z,4.13
2022-08-25T07:39:39.557Z,3.92
2022-08-25T07:41:42.310Z,4.32
2022-08-25T07:43:44.736Z,3.25
2022-08-25T07:45:49.292Z,7.85
2022-08-25T07:47:53.848Z,3.22
2022-08-25T07:49:55.585Z,8.15
2022-08-25T07:52:05.577Z,4.22
2022-08-25T07:54:08.670Z,4.78
2022-08-25T07:56:15.538Z,3.67
2022-08-25T07:58:18.301Z,3.72
2022-08-25T08:00:20.648Z,4.03
2022-08-25T08:02:24.706Z,5.07
2022-08-25T08:04:26.620Z,4.47
2022-08-25T08:06:30.187Z,6.82
2022-08-25T08:08:32.576Z,4.72
2022-08-25T08:12:56.133Z,7.18
2022-08-25T08:14:59.035Z,5.93
2022-08-25T08:17:06.014Z,3.55
2022-08-25T08:19:07.799Z,3.53
2022-08-25T08:21:20.008Z,4.13
2022-08-25T08:23:27.715Z,5.05
2022-08-25T08:25:30.141Z,3.63
2022-08-25T08:27:32.461Z,4.13
2022-08-25T08:29:35.331Z,4.40
2022-08-25T08:31:37.154Z,4.30
2022-08-25T08:33:40.821Z,4.32
2022-08-25T08:35:43.250Z,6.80
2022-08-25T08:37:46.149Z,6.75
2022-08-25T08:39:47.837Z,4.25
2022-08-25T08:42:19.079Z,7.85
2022-08-25T08:44:45.730Z,7.38
2022-08-25T08:46:54.683Z,5.18
2022-08-25T08:49:01.092Z,5.05
2022-08-25T08:51:18.011Z,2.97
2022-08-25T08:53:23.991Z,3.88
2022-08-25T08:55:29.210Z,7.60
2022-08-25T08:57:35.732Z,5.30
2022-08-25T08:59:49.655Z,6.93
2022-08-25T09:01:57.485Z,3.15
2022-08-25T09:04:20.047Z,3.47
2022-08-25T09:06:28.352Z,3.70
2022-08-25T09:08:30.876Z,4.45
2022-08-25T09:10:46.090Z,4.78
2022-08-25T09:13:01.698Z,3.25
2022-08-25T09:15:59.046Z,3.47
2022-08-25T09:18:30.075Z,3.53
2022-08-25T09:21:10.618Z,4.57
2022-08-25T09:23:33.550Z,3.53
2022-08-25T09:25:52.798Z,3.65
2022-08-25T09:28:24.092Z,5.18
2022-08-25T09:30:25.945Z,2.72
2022-08-25T09:32:31.560Z,3.70
2022-08-25T09:34:35.128Z,4.10
2022-08-25T09:36:37.878Z,5.35
2022-08-25T09:38:40.276Z,2.50
2022-08-25T09:40:51.966Z,2.83
2022-08-25T09:42:57.911Z,3.13
2022-08-25T09:45:00.789Z,3.45
2022-08-25T09:47:25.056Z,5.10
2022-08-25T09:49:36.060Z,3.08
2022-08-25T09:51:43.380Z,2.80
2022-08-25T09:54:00.987Z,5.55
2022-08-25T09:56:06.049Z,7.05
2022-08-25T09:58:18.306Z,2.38
2022-08-25T10:00:22.271Z,2.80
2022-08-25T10:02:28.493Z,2.55
2022-08-25T10:04:34.485Z,2.65
2022-08-25T10:06:46.782Z,2.80
2022-08-25T10:08:48.441Z,2.38
2022-08-25T10:10:55.351Z,2.20
2022-08-25T10:12:59.328Z,2.78
2022-08-25T10:15:29.520Z,2.30
2022-08-25T10:17:33.467Z,3.05
2022-08-25T10:19:35.431Z,3.60
2022-08-25T10:21:43.086Z,2.78
2022-08-25T10:23:53.570Z,3.72
2022-08-25T10:26:03.539Z,3.40
2022-08-25T10:28:09.143Z,3.30
2022-08-25T10:30:31.492Z,3.72
2022-08-25T10:32:54.067Z,3.78
2022-08-25T10:34:59.665Z,5.40
2022-08-25T10:37:12.378Z,3.47
2022-08-25T10:40:06.795Z,2.67
2022-08-25T10:42:19.584Z,5.38
2022-08-25T10:45:11.426Z,3.10
2022-08-25T10:48:00.440Z,3.17
2022-08-25T10:50:08.614Z,3.40
2022-08-25T10:52:17.681Z,3.35
2022-08-25T10:54:23.300Z,3.10
2022-08-25T10:56:34.425Z,2.03
2022-08-25T10:58:51.211Z,2.88
2022-08-25T11:01:08.797Z,2.85
2022-08-25T11:03:20.852Z,2.55
2022-08-25T11:05:36.973Z,2.88
2022-08-25T11:07:43.808Z,2.22
2022-08-25T11:09:49.253Z,2.58
2022-08-25T11:12:04.673Z,2.55
2022-08-25T11:14:17.171Z,2.70
2022-08-25T11:16:25.517Z,3.33
2022-08-25T11:18:29.618Z,2.83
2022-08-25T11:20:41.579Z,3.38
2022-08-25T11:22:47.122Z,2.53
2022-08-25T11:24:58.679Z,2.58
2022-08-25T11:27:01.144Z,2.10
2022-08-25T11:29:18.469Z,3.58
2022-08-25T11:31:21.872Z,2.17
2022-08-25T11:33:25.086Z,2.15
2022-08-25T11:35:34.443Z,2.17
2022-08-25T11:37:59.868Z,2.35
2022-08-25T11:40:11.841Z,3.50
2022-08-25T11:42:29.125Z,3.97
2022-08-25T11:44:53.090Z,3.40
2022-08-25T11:47:21.332Z,3.22
2022-08-25T11:49:43.025Z,2.80
2022-08-25T11:51:47.778Z,3.75
2022-08-25T11:54:07.547Z,3.03
2022-08-25T11:56:31.843Z,2.80
2022-08-25T11:58:40.654Z,3.42
2022-08-25T12:00:43.789Z,3.25
2022-08-25T12:02:47.467Z,3.45
2022-08-25T12:04:49.246Z,10.80
2022-08-25T12:07:07.112Z,3.70
2022-08-25T12:09:13.281Z,3.45
2022-08-25T12:11:48.420Z,2.20
2022-08-25T12:13:51.655Z,2.00
2022-08-25T12:15:53.317Z,3.13
2022-08-25T12:18:22.805Z,2.38
2022-08-25T12:20:53.385Z,3.05
2022-08-25T12:22:57.710Z,5.57
2022-08-25T12:25:05.891Z,3.42
2022-08-25T12:27:34.206Z,2.47
2022-08-25T12:29:46.560Z,3.78
2022-08-25T12:31:57.423Z,2.80
2022-08-25T12:34:26.862Z,2.50
2022-08-25T12:36:31.762Z,2.80
2022-08-25T12:38:46.261Z,3.80
2022-08-25T12:40:51.347Z,2.95
2022-08-25T12:43:07.504Z,2.97
2022-08-25T12:45:21.697Z,2.88
2022-08-25T12:47:32.249Z,2.83
2022-08-25T12:49:36.137Z,4.40
2022-08-25T12:51:51.247Z,3.03
2022-08-25T12:54:22.298Z,5.85
2022-08-25T12:56:24.413Z,3.53
2022-08-25T12:58:56.602Z,2.92
2022-08-25T13:01:10.303Z,2.72
2022-08-25T13:05:58.560Z,3.92
2022-08-25T13:08:22.138Z,2.17
2022-08-25T13:10:48.582Z,2.65
2022-08-25T13:13:06.013Z,2.97
2022-08-25T13:15:14.046Z,2.90
2022-08-25T13:17:30.926Z,2.80
2022-08-25T13:19:36.324Z,2.47
2022-08-25T13:21:41.208Z,2.58
2022-08-25T13:23:45.971Z,2.60
2022-08-25T13:25:51.365Z,2.42
2022-08-25T13:27:59.601Z,4.70
2022-08-25T13:30:03.946Z,4.60
2022-08-25T13:32:12.803Z,2.47
2022-08-25T13:34:21.453Z,3.40
2022-08-25T13:36:51.970Z,4.35
2022-08-25T13:39:11.284Z,2.88
2022-08-25T13:41:18.899Z,3.85
2022-08-25T13:43:27.388Z,2.92
2022-08-25T13:45:31.862Z,2.33
2022-08-25T13:47:43.747Z,2.80
2022-08-25T13:49:48.104Z,1.98
2022-08-25T13:51:54.853Z,4.38
2022-08-25T13:54:04.242Z,2.45
2022-08-25T13:56:07.377Z,3.10
2022-08-25T13:58:14.613Z,2.58
2022-08-25T14:00:31.743Z,2.65
2022-08-25T14:02:50.808Z,2.42
2022-08-25T14:04:52.953Z,2.60
2022-08-25T14:07:21.224Z,2.22
2022-08-25T14:09:27.879Z,2.30
2022-08-25T14:11:43.648Z,2.60
2022-08-25T14:13:45.908Z,2.67
2022-08-25T14:15:48.163Z,2.13
2022-08-25T14:18:04.199Z,4.63
2022-08-25T14:20:07.636Z,3.45
2022-08-25T14:22:17.886Z,2.92
2022-08-25T14:24:27.975Z,3.85
2022-08-25T14:26:32.857Z,2.10
2022-08-25T14:28:35.167Z,3.15
2022-08-25T14:30:43.446Z,2.30
2022-08-25T14:32:47.797Z,2.72
2022-08-25T14:34:52.778Z,2.38
2022-08-25T14:36:54.646Z,2.30
2022-08-25T14:38:56.777Z,1.65
2022-08-25T14:40:59.315Z,2.10
2022-08-25T14:43:03.965Z,2.22
2022-08-25T14:45:07.093Z,2.35
2022-08-25T14:47:09.109Z,4.10
2022-08-25T14:49:13.303Z,3.90
2022-08-25T14:51:15.856Z,3.92
2022-08-25T14:53:17.622Z,2.33
2022-08-25T14:55:31.666Z,3.13
2022-08-25T14:57:35.620Z,1.63
2022-08-25T14:59:43.108Z,2.20
2022-08-25T15:01:45.272Z,2.88
2022-08-25T15:03:48.898Z,2.28
2022-08-25T15:05:50.675Z,3.40
2022-08-25T15:08:13.262Z,2.85
2022-08-25T15:10:15.141Z,1.90
2022-08-25T15:12:26.062Z,2.05
2022-08-25T15:14:39.881Z,1.75
2022-08-25T15:16:45.804Z,3.17
2022-08-25T15:18:47.708Z,2.28
2022-08-25T15:20:51.174Z,2.40
2022-08-25T15:22:52.901Z,7.63
2022-08-25T15:24:54.783Z,8.73
2022-08-25T15:27:02.070Z,2.47
2022-08-25T15:29:03.986Z,17.83
2022-08-25T15:31:05.934Z,4.13
2022-08-25T15:33:10.173Z,2.42
2022-08-25T15:35:12.528Z,3.58
2022-08-25T15:37:17.838Z,1.70
2022-08-25T15:39:20.499Z,1.73
2022-08-25T15:41:27.636Z,1.65
2022-08-25T15:43:29.703Z,1.60
2022-08-25T15:45:32.962Z,1.95
2022-08-25T15:47:35.106Z,3.15
2022-08-25T15:49:37.348Z,2.78
2022-08-25T15:51:39.300Z,3.58
2022-08-25T15:53:41.018Z,2.22
2022-08-25T15:55:43.425Z,1.80
2022-08-25T15:57:45.956Z,2.28
2022-08-25T15:59:47.665Z,5.07
2022-08-25T16:01:54.169Z,2.45
2022-08-25T16:03:57.295Z,2.47
2022-08-25T16:05:59.091Z,7.05
2022-08-25T16:08:01.323Z,3.80
2022-08-25T16:10:05.018Z,2.53
2022-08-25T16:12:08.449Z,1.88
2022-08-25T16:14:12.151Z,2.42
2022-08-25T16:16:16.690Z,2.10
2022-08-25T16:18:18.404Z,285.10
2022-08-25T16:20:20.936Z,104.40
2022-08-25T16:22:25.095Z,35.95
2022-08-25T16:24:27.753Z,177.45
2022-08-25T16:26:30.266Z,214.27
2022-08-25T16:28:31.932Z,181.95
2022-08-25T16:30:35.273Z,82.05
2022-08-25T16:32:36.975Z,152.40
2022-08-25T16:34:39.435Z,244.40
2022-08-25T16:36:41.189Z,198.48
2022-08-25T16:38:43.858Z,244.57
2022-08-25T16:40:54.522Z,110.22
2022-08-25T16:42:57.734Z,96.68
2022-08-25T16:45:00.065Z,109.13
2022-08-25T16:47:01.878Z,66.00
2022-08-25T16:49:05.169Z,185.00
2022-08-25T16:51:11.721Z,381.08
2022-08-25T16:53:32.435Z,297.83
2022-08-25T16:55:39.324Z,186.77
2022-08-25T16:58:00.660Z,124.45
2022-08-25T17:00:13.873Z,268.10
2022-08-25T17:02:16.333Z,200.20
2022-08-25T17:04:21.665Z,154.90
2022-08-25T17:06:37.056Z,238.05
2022-08-25T17:08:39.879Z,157.05
2022-08-25T17:10:43.204Z,150.82
2022-08-25T17:12:45.670Z,196.40
2022-08-25T17:14:47.518Z,4.38
2022-08-25T17:16:51.280Z,127.20
2022-08-25T17:18:54.030Z,316.55
2022-08-25T17:21:12.595Z,141.05
2022-08-25T17:23:21.307Z,236.68
2022-08-25T17:25:23.115Z,313.83
2022-08-25T17:27:29.263Z,308.00
2022-08-25T17:29:33.836Z,262.52
2022-08-25T17:31:40.167Z,178.13
2022-08-25T17:33:42.218Z,179.10
2022-08-25T17:35:47.258Z,190.57
2022-08-25T17:37:50.787Z,231.90
2022-08-25T17:40:02.675Z,221.70
2022-08-25T17:42:05.131Z,293.38
2022-08-25T17:44:06.843Z,441.75
2022-08-25T17:46:12.623Z,262.88
2022-08-25T17:48:14.933Z,325.00
2022-08-25T17:50:16.909Z,359.42
2022-08-25T17:52:21.519Z,166.43
2022-08-25T17:54:27.248Z,295.77
2022-08-25T17:56:30.111Z,413.20
2022-08-25T17:58:32.661Z,321.00
2022-08-25T18:00:41.210Z,201.60
2022-08-25T18:02:45.829Z,210.05
2022-08-25T18:04:47.521Z,239.02
2022-08-25T18:06:49.285Z,212.73
2022-08-25T18:08:53.642Z,349.40
2022-08-25T18:10:58.221Z,135.55
2022-08-25T18:13:02.190Z,288.30
2022-08-25T18:15:05.895Z,158.80
2022-08-25T18:17:09.876Z,392.65
2022-08-25T18:19:13.021Z,94.57
2022-08-25T18:21:17.984Z,433.73
2022-08-25T18:23:20.192Z,155.90
2022-08-25T18:25:21.905Z,129.25
2022-08-25T18:27:26.775Z,270.88
2022-08-25T18:29:28.630Z,356.73
2022-08-25T18:31:33.155Z,345.38
2022-08-25T18:33:35.168Z,210.43
2022-08-25T18:35:38.043Z,250.68
2022-08-25T18:37:58.268Z,170.35
2022-08-25T18:40:18.814Z,239.38
2022-08-25T18:42:20.754Z,198.75
2022-08-25T18:44:23.038Z,323.52
2022-08-25T18:46:24.845Z,179.07
2022-08-25T18:48:27.743Z,166.07
2022-08-25T18:50:31.919Z,376.58
2022-08-25T18:52:34.125Z,214.82
2022-08-25T18:54:36.349Z,402.45
2022-08-25T18:56:38.182Z,175.77
2022-08-25T18:58:39.995Z,261.95
2022-08-25T19:00:44.729Z,269.92
2022-08-25T19:02:49.306Z,307.83
2022-08-25T19:04:52.742Z,206.43
2022-08-25T19:06:54.368Z,181.73
2022-08-25T19:08:57.597Z,316.45
2022-08-25T19:10:59.326Z,334.52
2022-08-25T19:13:07.924Z,276.90
2022-08-25T19:15:10.776Z,344.27
2022-08-25T19:17:12.507Z,302.58
2022-08-25T19:19:14.529Z,191.63
2022-08-25T19:21:17.350Z,128.38
2022-08-25T19:23:24.353Z,290.52
2022-08-25T19:25:26.703Z,277.67
2022-08-25T19:27:35.974Z,219.02
2022-08-25T19:29:37.742Z,280.88
2022-08-25T19:31:41.616Z,228.05
2022-08-25T19:33:44.953Z,453.15
2022-08-25T19:35:49.539Z,158.35
2022-08-25T19:37:52.174Z,262.23
2022-08-25T19:39:55.195Z,184.38
2022-08-25T19:41:59.253Z,311.13
2022-08-25T19:44:03.709Z,305.02
2022-08-25T19:46:06.831Z,234.43
2022-08-25T19:48:09.225Z,411.90
2022-08-25T19:50:16.629Z,147.85
2022-08-25T19:52:24.965Z,263.60
2022-08-25T19:54:34.805Z,248.40
2022-08-25T19:56:37.879Z,207.43
2022-08-25T19:58:45.893Z,267.88
2022-08-25T20:00:51.252Z,268.90
2022-08-25T20:02:53.839Z,186.32
2022-08-25T20:04:58.512Z,273.80
2022-08-25T20:07:01.717Z,181.77
2022-08-25T20:09:04.348Z,259.58
2022-08-25T20:11:06.367Z,161.23
2022-08-25T20:13:08.604Z,278.25
2022-08-25T20:15:12.965Z,276.15
2022-08-25T20:17:23.512Z,311.60
2022-08-25T20:19:26.794Z,237.60
2022-08-25T20:21:28.579Z,190.85
2022-08-25T20:23:51.152Z,321.23
2022-08-25T20:25:52.931Z,261.55
2022-08-25T20:27:56.131Z,219.63
2022-08-25T20:29:58.420Z,436.30
2022-08-25T20:32:00.139Z,276.08
2022-08-25T20:34:03.097Z,179.63
2022-08-25T20:36:05.956Z,447.35
2022-08-25T20:38:08.507Z,233.68
2022-08-25T20:40:12.473Z,167.20
2022-08-25T20:42:14.583Z,271.90
2022-08-25T20:44:16.866Z,212.88
2022-08-25T20:46:19.412Z,256.10
2022-08-25T20:48:21.189Z,399.95
2022-08-25T20:50:24.074Z,296.45
2022-08-25T20:52:26.144Z,235.68
2022-08-25T20:54:29.185Z,379.92
2022-08-25T20:56:33.127Z,318.90
2022-08-25T20:58:37.032Z,252.93
2022-08-25T21:00:41.076Z,215.88
2022-08-25T21:02:43.484Z,228.10
2022-08-25T21:04:49.910Z,315.33
2022-08-25T21:06:53.064Z,413.02
2022-08-25T21:08:54.766Z,284.52
2022-08-25T21:10:56.871Z,312.67
2022-08-25T21:12:58.884Z,270.25
2022-08-25T21:15:00.747Z,358.08
2022-08-25T21:17:02.616Z,242.00
2022-08-25T21:19:08.944Z,224.35
2022-08-25T21:21:15.206Z,129.25
2022-08-25T21:23:18.438Z,441.83
2022-08-25T21:25:20.359Z,292.13
2022-08-25T21:27:23.984Z,290.35
2022-08-25T21:29:28.571Z,336.02
2022-08-25T21:31:31.096Z,222.77
2022-08-25T21:33:33.386Z,368.73
2022-08-25T21:35:39.975Z,202.95
2022-08-25T21:37:41.656Z,320.17
2022-08-25T21:39:43.727Z,472.55
2022-08-25T21:41:47.147Z,263.08
2022-08-25T21:43:50.101Z,175.65
2022-08-25T21:45:51.936Z,176.93
2022-08-25T21:47:53.900Z,202.10
2022-08-25T21:49:55.622Z,251.50
2022-08-25T21:52:03.241Z,286.45
2022-08-25T21:54:10.284Z,114.70
2022-08-25T21:56:17.720Z,402.17
2022-08-25T21:58:21.666Z,213.30
2022-08-25T22:00:23.578Z,378.17
2022-08-25T22:02:25.830Z,243.38
2022-08-25T22:04:29.690Z,330.08
2022-08-25T22:06:32.536Z,368.80
2022-08-25T22:08:35.352Z,300.50
2022-08-25T22:10:44.615Z,306.80
2022-08-25T22:12:47.764Z,258.33
2022-08-25T22:14:49.649Z,213.27
2022-08-25T22:16:52.048Z,385.10
2022-08-25T22:18:54.030Z,344.35
2022-08-25T22:20:57.384Z,204.90
2022-08-25T22:23:00.223Z,324.30
2022-08-25T22:25:02.125Z,337.15
2022-08-25T22:27:05.097Z,307.88
2022-08-25T22:29:24.810Z,269.38
2022-08-25T22:31:28.521Z,358.50
2022-08-25T22:33:30.939Z,348.25
2022-08-25T22:35:33.687Z,285.92
2022-08-25T22:37:35.562Z,101.00
2022-08-25T22:39:37.596Z,311.33
2022-08-25T22:41:42.814Z,240.98
2022-08-25T22:43:47.414Z,199.40
2022-08-25T22:45:49.748Z,299.92
2022-08-25T22:47:55.533Z,164.05
2022-08-25T22:49:58.976Z,259.05
2022-08-25T22:52:02.522Z,350.00
2022-08-25T22:54:05.203Z,474.92
2022-08-25T22:56:12.597Z,189.35
2022-08-25T22:58:14.762Z,258.95
2022-08-25T23:00:17.023Z,363.70
2022-08-25T23:02:18.686Z,381.90
2022-08-25T23:04:21.330Z,160.52
2022-08-25T23:06:25.238Z,234.90
2022-08-25T23:08:39.335Z,277.77
2022-08-25T23:10:53.716Z,352.65
2022-08-25T23:12:55.420Z,370.20
2022-08-25T23:14:57.190Z,193.45
2022-08-25T23:16:58.843Z,293.73
2022-08-25T23:19:00.848Z,335.55
2022-08-25T23:21:24.358Z,467.10
2022-08-25T23:23:26.375Z,279.60
2022-08-25T23:25:28.277Z,249.77
2022-08-25T23:27:30.228Z,192.18
2022-08-25T23:29:34.335Z,263.23
2022-08-25T23:31:36.103Z,356.63
2022-08-25T23:33:38.263Z,367.70
2022-08-25T23:35:40.020Z,413.15
2022-08-25T23:37:41.730Z,212.13
2022-08-25T23:39:45.805Z,474.95
2022-08-25T23:41:47.697Z,252.00
2022-08-25T23:43:50.706Z,269.67
2022-08-25T23:45:52.524Z,338.27
2022-08-25T23:47:54.267Z,487.08
2022-08-25T23:49:55.997Z,336.83
2022-08-25T23:51:57.784Z,223.93
2022-08-25T23:54:03.698Z,346.20
2022-08-25T23:56:06.476Z,388.50
2022-08-25T23:58:08.207Z,228.48
